Time;durP1;ratioP1;P1;durP2;ratioP2;P2;SDS_P1;SDS_P2;PMS_P1;PMS_P2;Temp;Humidity;BMP_temperature;BMP_pressure;BME280_temperature;BME280_humidity;BME280_pressure;Samples;Min_cycle;Max_cycle;Signal;HPM_P1;HPM_P2
2023/06/08 00:01:48;;;;;;;;;;;23.30;53.60;;;23.47;38.22;98440.81;5025770;27;114681;-81
2023/06/08 00:04:14;;;;;;;;;;;23.30;53.80;;;23.44;38.39;98444.47;5023771;27;124005;-81
2023/06/08 00:06:41;;;;;;;;;;;23.30;53.90;;;23.43;38.28;98451.28;5022761;27;123634;-80
2023/06/08 00:09:07;;;;;;;;;;;23.20;53.90;;;23.41;38.54;98453.75;5024372;27;115552;-81
2023/06/08 00:11:33;;;;;;;;;;;22.60;53.50;;;23.36;38.84;98450.13;5008714;28;112021;-80
2023/06/08 00:14:00;;;;;;;;;;;23.20;54.20;;;23.33;38.99;98456.56;5022089;27;124105;-81
2023/06/08 00:16:29;;;;;;;;;;;23.10;54.20;;;23.31;38.92;98466.63;5023780;27;123909;-82
2023/06/08 00:18:56;;;;;;;;;;;23.10;54.50;;;23.27;38.93;98461.03;5025441;27;114928;-81
2023/06/08 00:21:23;;;;;;;;;;;23.10;54.60;;;23.25;38.97;98463.44;5026664;27;113423;-81
2023/06/08 00:23:50;;;;;;;;;;;23.10;54.70;;;23.22;39.39;98460.63;5024088;27;124805;-81
2023/06/08 00:26:17;;;;;;;;;;;23.00;54.80;;;23.18;39.30;98463.44;5024334;27;123878;-81
2023/06/08 00:28:46;;;;;;;;;;;23.00;54.80;;;23.12;39.28;98451.78;5024957;27;114246;-82
2023/06/08 00:31:13;;;;;;;;;;;23.00;54.90;;;23.09;39.13;98454.59;5024704;27;113429;-81
2023/06/08 00:33:39;;;;;;;;;;;22.90;54.90;;;23.06;39.37;98458.25;5010872;28;123410;-82
2023/06/08 00:36:08;;;;;;;;;;;22.90;54.90;;;23.03;39.41;98459.84;5028463;27;124704;-81
2023/06/08 00:38:36;;;;;;;;;;;22.80;54.90;;;22.99;39.44;98455.44;5029357;27;113827;-81
2023/06/08 00:41:03;;;;;;;;;;;22.80;55.00;;;22.96;39.60;98448.59;5029332;27;114616;-81
2023/06/08 00:43:29;;;;;;;;;;;22.80;55.10;;;22.93;39.36;98450.16;5029537;27;123523;-81
2023/06/08 00:45:56;;;;;;;;;;;22.70;55.20;;;22.92;39.73;98459.03;5029040;27;123166;-82
2023/06/08 00:48:25;;;;;;;;;;;22.70;55.30;;;22.89;39.89;98451.38;5029175;27;115195;-82
2023/06/08 00:50:52;;;;;;;;;;;22.70;55.50;;;22.84;39.71;98455.41;5031162;28;112879;-82
2023/06/08 00:53:21;;;;;;;;;;;22.60;55.50;;;22.81;39.89;98456.22;5028133;28;123537;-82
2023/06/08 00:55:51;;;;;;;;;;;22.60;55.50;;;22.77;39.85;98461.03;5028032;27;123904;-82
2023/06/08 00:58:18;;;;;;;;;;;22.60;55.60;;;22.72;40.09;98448.16;5027999;28;114455;-82
2023/06/08 01:00:46;;;;;;;;;;;22.50;55.70;;;22.69;39.89;98453.81;5028806;27;113866;-82
2023/06/08 01:03:16;;;;;;;;;;;22.50;55.80;;;22.66;39.79;98451.78;5026995;27;124335;-82
2023/06/08 01:05:52;;;;;;;;;;;22.50;55.90;;;22.64;40.35;98457.03;5027704;27;124317;-82
2023/06/08 01:08:42;;;;;;;;;;;22.40;55.80;;;22.60;39.99;98447.78;5008107;28;113924;-82
2023/06/08 01:11:20;;;;;;;;;;;22.40;55.90;;;22.59;40.00;98443.34;5028863;27;113696;-82
2023/06/08 01:14:13;;;;;;;;;;;22.40;56.00;;;22.54;40.23;98436.13;5026538;27;124903;-82
2023/06/08 01:16:44;;;;;;;;;;;22.40;56.00;;;22.49;40.34;98440.13;5023619;27;124764;-82
2023/06/08 01:19:17;;;;;;;;;;;22.30;56.00;;;22.47;40.27;98442.53;5026898;27;114813;-82
2023/06/08 01:22:10;;;;;;;;;;;22.30;56.10;;;22.42;40.37;98442.91;5026479;27;113466;-82
2023/06/08 01:24:39;;;;;;;;;;;22.30;56.20;;;22.39;40.44;98440.13;5029974;27;123508;-82
2023/06/08 01:27:09;;;;;;;;;;;22.20;56.20;;;22.37;40.55;98446.13;5014335;28;123427;-82
2023/06/08 01:29:35;;;;;;;;;;;22.20;56.30;;;22.35;40.62;98440.09;5028346;27;113691;-82
2023/06/08 01:32:02;;;;;;;;;;;22.20;56.50;;;22.34;40.83;98441.31;5029582;27;113220;-82
2023/06/08 01:34:28;;;;;;;;;;;22.10;56.40;;;22.32;40.68;98432.44;5026084;27;125041;-82
2023/06/08 01:37:04;;;;;;;;;;;22.10;56.50;;;22.31;40.90;98435.69;5027775;27;123952;-82
2023/06/08 01:39:35;;;;;;;;;;;22.10;56.60;;;22.28;40.64;98435.28;5027632;27;115426;-82
2023/06/08 01:42:03;;;;;;;;;;;22.10;56.60;;;22.25;40.57;98424.03;5028882;27;115327;-82
2023/06/08 01:44:35;;;;;;;;;;;22.10;56.70;;;22.22;40.51;98424.81;5028917;27;127286;-82
2023/06/08 01:47:02;;;;;;;;;;;22.00;56.60;;;22.20;40.95;98435.66;5026520;27;123736;-82
2023/06/08 01:49:28;;;;;;;;;;;22.00;56.60;;;22.16;40.55;98434.81;5045269;27;114437;-82
2023/06/08 01:51:59;;;;;;;;;;;21.90;56.50;;;22.13;40.69;98433.59;5029864;27;113727;-81
2023/06/08 01:54:25;;;;;;;;;;;21.90;56.60;;;22.11;41.08;98426.75;5027166;27;124159;-82
2023/06/08 01:56:51;;;;;;;;;;;21.90;56.60;;;22.09;41.00;98429.19;5027007;27;124513;-83
2023/06/08 01:59:18;;;;;;;;;;;21.90;56.70;;;22.06;40.68;98423.16;5042819;27;114388;-83
2023/06/08 02:01:44;;;;;;;;;;;21.80;56.70;;;22.02;41.07;98422.31;5026012;27;113733;-82
2023/06/08 02:04:10;;;;;;;;;;;21.80;56.80;;;22.00;40.85;98424.75;5026473;27;124186;-83
2023/06/08 02:06:36;;;;;;;;;;;21.80;56.90;;;21.99;40.80;98423.13;5028197;27;123904;-81
2023/06/08 02:09:03;;;;;;;;;;;21.80;57.00;;;21.96;41.17;98421.13;5028288;27;114604;-83
2023/06/08 02:11:29;;;;;;;;;;;21.70;57.00;;;21.95;41.20;98427.94;5029803;27;113105;-83
2023/06/08 02:13:55;;;;;;;;;;;21.70;57.10;;;21.91;41.22;98420.69;5041998;27;124429;-83
2023/06/08 02:16:22;;;;;;;;;;;21.70;57.20;;;21.88;41.11;98427.91;5042307;27;123861;-83
2023/06/08 02:18:51;;;;;;;;;;;21.60;57.10;;;21.86;41.38;98426.72;5011642;28;113929;-83
2023/06/08 02:21:18;;;;;;;;;;;21.60;57.20;;;21.83;41.25;98422.69;5028653;27;115922;-83
2023/06/08 02:23:44;;;;;;;;;;;21.60;57.30;;;21.80;41.23;98424.28;5027460;28;123288;-83
2023/06/08 02:26:13;;;;;;;;;;;21.60;57.40;;;21.78;41.66;98423.06;5026831;27;123972;-83
2023/06/08 02:28:39;;;;;;;;;;;21.60;57.40;;;21.76;41.55;98420.66;5026925;27;114942;-83
2023/06/08 02:31:06;;;;;;;;;;;21.50;57.50;;;21.74;41.81;98423.06;5029893;27;113927;-83
2023/06/08 02:33:32;;;;;;;;;;;21.50;57.60;;;21.71;41.67;98428.66;5029984;27;123338;-83
2023/06/08 02:35:58;;;;;;;;;;;21.50;57.70;;;21.68;42.05;98424.66;5026463;27;123940;-83
2023/06/08 02:38:25;;;;;;;;;;;21.50;57.90;;;21.66;41.88;98420.63;5027494;27;114447;-83
2023/06/08 02:40:51;;;;;;;;;;;21.40;58.00;;;21.62;42.27;98427.03;5027012;27;113626;-83
2023/06/08 02:43:19;;;;;;;;;;;21.40;58.10;;;21.59;42.26;98425.00;5028472;27;124307;-82
2023/06/08 02:45:45;;;;;;;;;;;21.40;58.30;;;21.56;42.48;98428.59;5012063;28;123879;-83
2023/06/08 02:48:11;;;;;;;;;;;21.40;58.40;;;21.52;42.33;98421.34;5025674;27;114325;-83
2023/06/08 02:50:38;;;;;;;;;;;21.30;58.50;;;21.49;42.41;98428.56;5027164;28;114163;-83
2023/06/08 02:53:04;;;;;;;;;;;21.30;58.70;;;21.46;42.44;98429.34;5026316;28;124442;-83
2023/06/08 02:55:34;;;;;;;;;;;21.30;58.80;;;21.44;42.57;98428.16;5025700;27;124008;-83
2023/06/08 02:58:02;;;;;;;;;;;21.30;58.90;;;21.40;42.96;98426.13;5028999;27;113705;-83
2023/06/08 03:00:31;;;;;;;;;;;21.20;59.00;;;21.38;42.84;98424.91;5026540;27;113649;-83
2023/06/08 03:03:03;;;;;;;;;;;21.20;59.20;;;21.34;42.81;98426.88;5029082;27;124323;-83
2023/06/08 03:05:29;;;;;;;;;;;21.10;59.20;;;21.32;43.32;98429.28;5026242;27;123856;-83
2023/06/08 03:07:58;;;;;;;;;;;21.10;59.30;;;21.27;43.16;98430.44;5026709;28;114535;-82
2023/06/08 03:10:25;;;;;;;;;;;21.10;59.40;;;21.24;43.11;98438.88;5028870;27;112840;-83
2023/06/08 03:12:52;;;;;;;;;;;21.00;59.40;;;21.22;43.49;98438.44;5026388;27;124369;-84
2023/06/08 03:15:22;;;;;;;;;;;21.00;59.60;;;21.19;43.25;98443.63;5026452;27;124058;-84
2023/06/08 03:17:51;;;;;;;;;;;21.00;59.70;;;21.16;43.59;98447.25;5011351;28;115415;-83
2023/06/08 03:20:17;;;;;;;;;;;21.00;60.30;;;21.08;44.07;98442.78;5028519;27;114903;-84
2023/06/08 03:22:45;;;;;;;;;;;20.90;60.20;;;21.04;44.04;98452.41;5026011;28;124513;-84
2023/06/08 03:25:15;;;;;;;;;;;20.80;60.30;;;21.00;44.00;98448.75;5027095;28;124847;-84
2023/06/08 03:27:42;;;;;;;;;;;20.80;60.40;;;20.97;44.29;98439.09;5025245;28;114294;-83
2023/06/08 03:30:09;;;;;;;;;;;20.80;60.60;;;20.95;44.47;98438.69;5026305;28;114285;-83
2023/06/08 03:32:36;;;;;;;;;;;20.80;60.70;;;20.93;44.29;98435.47;5010738;28;123237;-84
2023/06/08 03:35:05;;;;;;;;;;;20.70;60.80;;;20.92;44.49;98433.84;5025525;27;124022;-84
2023/06/08 03:37:31;;;;;;;;;;;20.70;60.90;;;20.90;44.42;98437.06;5028525;27;113463;-83
2023/06/08 03:39:57;;;;;;;;;;;20.70;61.10;;;20.91;44.50;98441.47;5025846;27;113747;-83
2023/06/08 03:42:23;;;;;;;;;;;20.70;61.10;;;20.90;44.55;98436.22;5024742;27;123977;-83
2023/06/08 03:44:52;;;;;;;;;;;20.70;61.20;;;20.88;44.63;98444.25;5011210;27;97522;-83
2023/06/08 03:47:18;;;;;;;;;;;20.70;61.40;;;20.86;44.96;98441.03;5026862;27;114432;-84
2023/06/08 03:49:44;;;;;;;;;;;20.60;61.50;;;20.83;44.92;98442.63;5025462;27;114011;-83
2023/06/08 03:52:11;;;;;;;;;;;20.60;61.60;;;20.84;44.99;98429.38;5026305;27;123688;-83
2023/06/08 03:54:37;;;;;;;;;;;20.60;61.70;;;20.85;44.58;98428.19;5025040;28;123972;-83
2023/06/08 03:57:05;;;;;;;;;;;20.60;61.80;;;20.87;45.00;98437.00;5025749;27;114492;-84
2023/06/08 03:59:32;;;;;;;;;;;20.60;61.90;;;20.85;45.12;98440.22;5025963;27;113956;-83
2023/06/08 04:01:58;;;;;;;;;;;20.60;62.00;;;20.91;44.64;98437.84;5025429;27;123278;-82
2023/06/08 04:04:28;;;;;;;;;;;20.60;62.10;;;21.05;44.79;98443.56;5025620;27;125392;-83
2023/06/08 04:07:00;;;;;;;;;;;20.60;62.20;;;21.16;44.59;98441.63;5026940;27;115615;-83
2023/06/08 04:09:31;;;;;;;;;;;20.60;62.30;;;21.19;44.17;98443.63;5028224;27;114529;-84
2023/06/08 04:11:57;;;;;;;;;;;20.70;62.50;;;21.17;44.75;98440.44;5024800;27;124167;-83
2023/06/08 04:14:24;;;;;;;;;;;20.70;62.40;;;21.13;44.35;98444.41;5024315;28;124263;-83
2023/06/08 04:16:50;;;;;;;;;;;20.70;62.40;;;21.07;44.75;98441.19;5025338;28;114842;-83
2023/06/08 04:19:16;;;;;;;;;;;20.70;62.40;;;21.03;44.56;98439.53;5026246;28;113345;-83
2023/06/08 04:21:43;;;;;;;;;;;20.70;62.40;;;21.00;44.87;98438.31;5024455;27;124606;-83
2023/06/08 04:24:09;;;;;;;;;;;20.70;62.40;;;20.99;45.11;98439.50;5025801;28;123835;-83
2023/06/08 04:26:36;;;;;;;;;;;20.70;62.40;;;20.98;44.91;98446.31;5024958;27;114561;-83
2023/06/08 04:29:03;;;;;;;;;;;20.70;62.50;;;20.97;44.97;98441.91;5024461;28;113605;-82
2023/06/08 04:31:30;;;;;;;;;;;20.70;62.50;;;20.96;45.14;98445.91;5024426;27;124086;-83
2023/06/08 04:33:56;;;;;;;;;;;20.70;62.40;;;20.96;44.84;98446.72;5010598;28;123070;-83
2023/06/08 04:36:23;;;;;;;;;;;20.70;62.40;;;20.98;45.06;98453.94;5027023;27;113314;-82
2023/06/08 04:38:49;;;;;;;;;;;20.60;62.30;;;20.97;44.80;98453.13;5024655;27;113686;-83
2023/06/08 04:41:18;;;;;;;;;;;20.60;62.30;;;20.98;45.05;98465.19;5025773;27;123369;-82
2023/06/08 04:43:49;;;;;;;;;;;20.70;62.40;;;20.97;44.89;98467.19;5010449;28;123256;-83
2023/06/08 04:46:15;;;;;;;;;;;20.70;62.50;;;20.97;44.91;98464.38;5025881;27;115007;-83
2023/06/08 04:48:43;;;;;;;;;;;19.90;61.70;;;20.95;44.81;98459.16;5025967;27;113509;-83
2023/06/08 04:51:10;;;;;;;;;;;20.70;62.50;;;20.89;45.08;98462.72;5024400;27;124305;-83
2023/06/08 04:53:37;;;;;;;;;;;20.60;62.80;;;20.81;45.39;98458.25;5026294;27;124092;-84
2023/06/08 04:56:06;;;;;;;;;;;20.60;62.60;;;20.80;45.02;98459.44;5024918;27;115918;-83
2023/06/08 04:58:33;;;;;;;;;;;20.60;62.70;;;20.81;45.25;98463.84;5027272;27;114805;-83
2023/06/08 05:01:00;;;;;;;;;;;20.60;62.80;;;20.83;45.09;98469.91;5026392;27;123409;-83
2023/06/08 05:03:28;;;;;;;;;;;20.60;62.90;;;20.86;45.58;98477.53;5027638;27;123034;-83
2023/06/08 05:05:55;;;;;;;;;;;20.60;63.20;;;20.84;45.49;98475.09;5025942;27;115836;-83
2023/06/08 05:08:21;;;;;;;;;;;20.60;63.40;;;20.83;45.49;98481.13;5023750;28;114945;-83
2023/06/08 05:10:48;;;;;;;;;;;20.50;63.10;;;20.83;45.37;98484.72;5024082;28;124021;-82
2023/06/08 05:13:14;;;;;;;;;;;20.50;63.20;;;20.85;45.58;98481.56;5025511;28;123640;-83
2023/06/08 05:15:40;;;;;;;;;;;20.50;63.40;;;20.89;45.74;98474.75;5024915;27;114500;-83
2023/06/08 05:18:06;;;;;;;;;;;20.60;63.70;;;20.91;45.55;98477.97;5025062;27;113759;-83
2023/06/08 05:20:33;;;;;;;;;;;20.50;63.60;;;20.94;45.82;98471.56;5024801;27;124253;-84
2023/06/08 05:22:59;;;;;;;;;;;20.60;64.00;;;20.91;45.67;98471.56;5025860;27;124056;-83
2023/06/08 05:25:26;;;;;;;;;;;20.60;64.10;;;20.93;45.67;98471.97;5026901;28;114538;-84
2023/06/08 05:27:52;;;;;;;;;;;20.60;64.00;;;20.98;45.98;98460.34;5011790;28;113185;-84
2023/06/08 05:30:22;;;;;;;;;;;20.60;64.30;;;21.03;45.88;98457.19;5028015;28;124102;-83
2023/06/08 05:32:48;;;;;;;;;;;20.60;64.10;;;21.11;45.38;98463.66;5024285;27;123847;-85
2023/06/08 05:35:17;;;;;;;;;;;20.70;64.30;;;21.13;45.28;98462.06;5027857;28;114515;-84
2023/06/08 05:37:43;;;;;;;;;;;20.70;64.20;;;21.15;45.31;98458.88;5030623;28;113939;-84
2023/06/08 05:40:09;;;;;;;;;;;20.70;64.30;;;21.12;45.31;98454.84;5028112;27;123505;-84
2023/06/08 05:42:38;;;;;;;;;;;20.70;64.40;;;21.13;45.56;98455.66;5029028;27;123304;-84
2023/06/08 05:45:04;;;;;;;;;;;20.70;64.40;;;21.16;45.54;98454.88;5030615;27;115885;-83
2023/06/08 05:47:31;;;;;;;;;;;20.60;64.30;;;21.16;45.44;98452.84;5031036;27;115400;-84
2023/06/08 05:49:57;;;;;;;;;;;20.70;64.30;;;21.23;45.27;98454.13;5028879;27;124249;-82
2023/06/08 05:52:23;;;;;;;;;;;20.70;64.30;;;21.28;45.19;98459.34;5029224;27;123917;-83
2023/06/08 05:54:50;;;;;;;;;;;20.80;64.30;;;21.36;45.37;98449.78;5026984;27;114405;-84
2023/06/08 05:57:16;;;;;;;;;;;20.80;64.10;;;21.50;45.07;98452.69;5029763;27;112675;-84
2023/06/08 05:59:45;;;;;;;;;;;21.00;64.20;;;21.59;44.99;98449.50;5025496;27;124223;-84
2023/06/08 06:02:11;;;;;;;;;;;21.00;63.90;;;21.65;44.46;98455.56;5029235;27;123232;-84
2023/06/08 06:04:37;;;;;;;;;;;21.10;63.80;;;21.70;44.62;98450.34;5029103;27;113766;-82
2023/06/08 06:07:07;;;;;;;;;;;21.10;63.70;;;21.71;44.42;98449.16;5027472;27;113705;-83
2023/06/08 06:09:33;;;;;;;;;;;21.20;63.70;;;21.75;44.58;98449.16;5026023;27;124410;-84
2023/06/08 06:12:02;;;;;;;;;;;21.20;63.50;;;21.84;44.14;98443.97;5012445;27;124096;-83
2023/06/08 06:14:41;;;;;;;;;;;21.30;63.50;;;21.98;44.11;98444.03;5026401;27;114261;-83
2023/06/08 06:17:08;;;;;;;;;;;21.40;63.40;;;22.05;43.98;98432.78;5013140;27;113923;-82
2023/06/08 06:19:36;;;;;;;;;;;21.50;63.30;;;22.12;43.87;98426.38;5026723;28;124047;-82
2023/06/08 06:22:08;;;;;;;;;;;21.50;63.10;;;22.23;43.73;98430.03;5017772;28;123581;-83
2023/06/08 06:24:35;;;;;;;;;;;21.60;63.20;;;22.38;43.42;98433.69;5025220;28;114095;-83
2023/06/08 06:27:02;;;;;;;;;;;21.70;63.00;;;22.44;43.07;98422.81;5026882;28;114064;-82
2023/06/08 06:29:31;;;;;;;;;;;21.80;62.60;;;22.43;43.18;98435.28;5026153;27;124393;-83
2023/06/08 06:31:57;;;;;;;;;;;21.80;62.40;;;22.41;42.64;98438.50;5020580;27;122749;-82
2023/06/08 06:34:23;;;;;;;;;;;21.80;62.10;;;22.46;43.00;98429.66;5013343;28;115017;-82
2023/06/08 06:36:50;;;;;;;;;;;21.90;62.10;;;22.54;42.74;98438.09;5012307;27;114316;-83
2023/06/08 06:39:17;;;;;;;;;;;22.00;61.90;;;22.55;42.69;98429.25;5042900;27;124273;-81
2023/06/08 06:41:44;;;;;;;;;;;22.00;61.70;;;22.57;42.63;98434.47;5024413;27;123815;-82
2023/06/08 06:44:10;;;;;;;;;;;22.10;61.70;;;22.62;42.62;98436.88;5029234;27;114569;-83
2023/06/08 06:46:37;;;;;;;;;;;22.10;62.40;;;22.70;42.71;98438.50;5024266;27;113694;-84
2023/06/08 06:49:03;;;;;;;;;;;22.20;61.70;;;22.77;42.53;98427.25;5029209;27;123697;-86
2023/06/08 06:51:30;;;;;;;;;;;22.30;61.60;;;22.85;42.32;98428.84;5023869;28;123281;-85
2023/06/08 06:53:56;;;;;;;;;;;22.30;61.50;;;22.98;42.00;98428.47;5027467;28;114253;-83
2023/06/08 06:56:22;;;;;;;;;;;22.40;61.30;;;23.09;41.99;98432.06;5025464;27;113615;-85
2023/06/08 06:58:52;;;;;;;;;;;22.50;61.30;;;23.21;41.90;98434.44;5023370;27;123342;-83
2023/06/08 07:01:23;;;;;;;;;;;22.60;61.20;;;23.30;41.61;98436.84;5025761;27;124145;-83
2023/06/08 07:03:51;;;;;;;;;;;22.60;60.80;;;23.28;41.23;98434.44;5041254;27;114428;-83
2023/06/08 07:06:20;;;;;;;;;;;22.70;60.50;;;23.26;41.53;98433.22;5026150;27;113825;-83
2023/06/08 07:08:47;;;;;;;;;;;22.70;60.40;;;23.31;41.17;98441.28;5025160;27;124427;-84
2023/06/08 07:11:13;;;;;;;;;;;22.80;60.10;;;23.37;41.06;98434.00;5028042;27;122975;-84
2023/06/08 07:13:42;;;;;;;;;;;22.80;60.10;;;23.46;41.05;98436.41;5025245;27;114535;-84
2023/06/08 07:16:10;;;;;;;;;;;22.90;60.20;;;23.55;40.74;98434.75;5026407;27;113963;-83
2023/06/08 07:18:37;;;;;;;;;;;22.90;60.00;;;23.63;40.72;98441.16;5028363;27;123568;-82
2023/06/08 07:21:03;;;;;;;;;;;23.00;59.90;;;23.72;40.38;98443.56;5024913;27;124020;-83
2023/06/08 07:23:29;;;;;;;;;;;23.10;59.60;;;23.80;39.86;98448.78;5025501;27;115624;-82
2023/06/08 07:25:55;;;;;;;;;;;23.20;59.30;;;23.87;40.12;98441.50;5029923;28;114254;-82
2023/06/08 07:28:22;;;;;;;;;;;23.20;59.10;;;23.96;40.02;98439.03;5024068;27;124967;-82
2023/06/08 07:30:48;;;;;;;;;;;23.30;59.10;;;24.08;39.89;98447.03;5025847;28;123894;-82
2023/06/08 07:33:14;;;;;;;;;;;23.50;59.10;;;24.21;39.70;98444.53;5025065;27;114696;-82
2023/06/08 07:35:40;;;;;;;;;;;23.60;58.80;;;24.26;39.38;98438.47;5026169;27;114706;-81
2023/06/08 07:38:07;;;;;;;;;;;23.60;58.20;;;24.31;39.46;98437.19;5024205;27;124562;-82
2023/06/08 07:40:36;;;;;;;;;;;23.70;58.40;;;24.40;39.69;98440.38;5027148;28;123231;-87
2023/06/08 07:43:02;;;;;;;;;;;23.80;58.60;;;24.53;39.18;98441.53;5020067;28;114564;-70
2023/06/08 07:45:28;;;;;;;;;;;23.90;58.60;;;24.64;39.09;98450.72;5029532;28;113324;-78
2023/06/08 07:47:55;;;;;;;;;;;24.00;58.30;;;24.76;38.53;98445.78;5027517;27;123561;-81
2023/06/08 07:50:21;;;;;;;;;;;24.10;58.00;;;24.87;38.83;98443.66;5027497;27;123031;-79
2023/06/08 07:52:53;;;;;;;;;;;24.20;57.90;;;24.99;38.35;98448.00;5025690;28;115088;-83
2023/06/08 07:55:23;;;;;;;;;;;24.30;57.60;;;25.07;37.67;98444.69;5025122;27;113538;-82
2023/06/08 07:57:50;;;;;;;;;;;24.40;56.90;;;25.12;37.72;98443.44;5021529;27;124102;-74
2023/06/08 08:00:17;;;;;;;;;;;24.50;56.80;;;25.18;37.18;98455.13;5040033;27;123894;-73
2023/06/08 08:02:44;;;;;;;;;;;24.50;56.60;;;25.22;36.99;98441.72;5039650;27;114334;-74
2023/06/08 08:05:10;;;;;;;;;;;24.60;56.20;;;25.24;37.15;98447.78;5026291;28;112738;-77
2023/06/08 08:07:37;;;;;;;;;;;24.70;56.00;;;25.23;37.26;98446.97;5021835;27;124196;-77
2023/06/08 08:10:23;;;;;;;;;;;24.70;55.80;;;25.27;37.13;98435.63;5021129;27;124527;-78
2023/06/08 08:12:52;;;;;;;;;;;24.70;55.90;;;25.28;37.58;98445.69;5004245;28;114755;-78
2023/06/08 08:15:18;;;;;;;;;;;24.80;56.10;;;25.31;37.50;98442.84;4971012;28;115018;-79
2023/06/08 08:17:47;;;;;;;;;;;24.80;56.30;;;25.34;38.03;98446.84;5003544;28;124557;-78
2023/06/08 08:20:16;;;;;;;;;;;24.80;56.70;;;25.36;38.37;98455.69;5002643;28;123770;-78
2023/06/08 08:22:42;;;;;;;;;;;24.80;57.50;;;25.35;38.53;98449.25;5002501;28;114345;-76
2023/06/08 08:25:09;;;;;;;;;;;24.90;57.60;;;25.34;38.40;98446.84;4988538;28;113299;-78
2023/06/08 08:27:35;;;;;;;;;;;24.90;57.60;;;25.36;38.71;98450.03;4984550;28;124021;-78
2023/06/08 08:30:02;;;;;;;;;;;24.90;57.80;;;25.37;39.09;98445.22;4988894;28;123107;-77
2023/06/08 08:32:28;;;;;;;;;;;24.90;57.90;;;25.33;38.87;98446.06;5004994;28;113609;-76
2023/06/08 08:34:54;;;;;;;;;;;24.90;58.00;;;25.34;39.08;98446.84;4997554;28;113526;-77
2023/06/08 08:37:20;;;;;;;;;;;24.90;58.30;;;25.34;39.04;98453.31;4987181;28;124336;-78
2023/06/08 08:39:47;;;;;;;;;;;24.90;58.40;;;25.38;38.51;98453.25;5004063;28;124746;-77
2023/06/08 08:42:22;;;;;;;;;;;24.90;57.60;;;25.34;38.27;98449.69;5002338;28;114285;-79
2023/06/08 08:44:55;;;;;;;;;;;24.90;57.30;;;25.31;38.23;98450.53;4980603;28;114075;-79
2023/06/08 08:47:28;;;;;;;;;;;24.90;57.30;;;25.28;38.63;98448.53;4985583;28;123115;-77
2023/06/08 08:50:06;;;;;;;;;;;24.90;57.30;;;25.29;38.71;98445.28;4987575;27;123322;-79
2023/06/08 08:52:37;;;;;;;;;;;24.90;57.60;;;25.30;38.74;98448.91;5022806;28;114387;-78
2023/06/08 08:55:06;;;;;;;;;;;24.90;57.50;;;25.27;38.34;98456.22;5012063;27;112909;-80
2023/06/08 08:57:32;;;;;;;;;;;24.90;57.00;;;25.28;37.60;98454.19;5026774;27;123903;-81
2023/06/08 09:00:00;;;;;;;;;;;24.80;56.50;;;25.24;37.69;98459.88;5022416;27;125111;-80
2023/06/08 09:02:26;;;;;;;;;;;24.80;56.00;;;25.21;37.64;98442.97;5025603;27;115625;-79
2023/06/08 09:04:54;;;;;;;;;;;24.80;56.00;;;25.19;37.89;98451.84;5027820;27;114696;-79
2023/06/08 09:07:24;;;;;;;;;;;24.80;56.10;;;25.22;37.67;98444.56;5028702;27;124640;-80
2023/06/08 09:10:22;;;;;;;;;;;24.80;55.80;;;25.21;37.34;98454.28;5027865;27;124265;-79
2023/06/08 09:12:50;;;;;;;;;;;24.80;55.70;;;25.23;37.68;98452.63;5029887;27;114148;-79
2023/06/08 09:15:31;;;;;;;;;;;24.90;55.70;;;25.26;38.15;98451.78;5043512;27;113830;-78
2023/06/08 09:18:02;;;;;;;;;;;24.90;56.30;;;25.29;37.59;98433.19;5027980;27;124469;-77
2023/06/08 09:20:32;;;;;;;;;;;24.90;56.10;;;25.32;37.45;98437.97;5026396;27;123951;-78
2023/06/08 09:23:15;;;;;;;;;;;24.90;55.80;;;25.32;36.62;98449.28;5005652;28;113684;-79
2023/06/08 09:25:41;;;;;;;;;;;24.90;54.90;;;25.34;36.27;98442.00;5027200;28;113596;-78
2023/06/08 09:28:24;;;;;;;;;;;25.00;53.80;;;25.37;36.03;98439.56;5011560;28;123507;-80
2023/06/08 09:30:55;;;;;;;;;;;25.00;53.70;;;25.39;35.27;98432.25;5034827;27;124059;-79
2023/06/08 09:33:26;;;;;;;;;;;25.00;53.10;;;25.43;34.63;98435.03;5029420;27;113745;-82
2023/06/08 09:36:16;;;;;;;;;;;25.00;52.10;;;25.47;34.51;98439.44;5012790;27;112921;-80
2023/06/08 09:38:42;;;;;;;;;;;25.10;52.20;;;25.52;34.73;98436.16;5027240;27;124870;-80
2023/06/08 09:41:21;;;;;;;;;;;25.10;52.00;;;25.49;34.18;98417.16;5026373;27;124016;-81
2023/06/08 09:43:49;;;;;;;;;;;25.10;51.70;;;25.52;34.13;98429.66;5045003;27;114506;-79
2023/06/08 09:46:34;;;;;;;;;;;25.10;51.60;;;25.57;34.04;98427.16;5028614;27;114038;-78
2023/06/08 09:49:03;;;;;;;;;;;25.20;51.20;;;25.67;33.45;98430.31;5028095;27;122859;-78
2023/06/08 09:51:38;;;;;;;;;;;25.20;50.90;;;25.68;33.39;98412.09;5027257;28;122864;-78
2023/06/08 09:54:10;;;;;;;;;;;25.30;50.60;;;25.69;33.62;98413.72;5026132;27;116045;-78
2023/06/08 09:56:38;;;;;;;;;;;25.30;50.80;;;25.74;33.83;98413.25;5012605;27;114349;-77
2023/06/08 09:59:08;;;;;;;;;;;25.30;50.70;;;25.79;33.76;98409.91;5027714;27;124401;-77
2023/06/08 10:01:46;;;;;;;;;;;25.40;50.60;;;25.86;33.50;98404.19;5027250;27;123071;-79
2023/06/08 10:04:21;;;;;;;;;;;25.50;50.70;;;25.96;33.54;98399.63;5030345;27;113982;-79
2023/06/08 10:06:52;;;;;;;;;;;25.50;50.90;;;26.05;33.49;98399.09;5028334;27;113756;-78
2023/06/08 10:09:20;;;;;;;;;;;25.60;51.00;;;26.09;33.61;98397.03;5026227;27;123803;-76
2023/06/08 10:11:48;;;;;;;;;;;25.70;50.60;;;26.11;33.14;98391.72;5025783;27;123886;-77
2023/06/08 10:14:16;;;;;;;;;;;25.70;50.30;;;26.08;33.11;98382.03;5027310;27;114316;-77
2023/06/08 10:16:42;;;;;;;;;;;25.70;50.40;;;26.08;33.17;98387.72;5036618;27;113637;-78
2023/06/08 10:19:10;;;;;;;;;;;25.70;50.10;;;26.13;33.90;98384.41;5025894;27;123921;-76
2023/06/08 10:21:37;;;;;;;;;;;25.80;50.50;;;26.18;33.73;98388.78;5025757;27;123199;-78
2023/06/08 10:24:04;;;;;;;;;;;25.80;50.70;;;26.27;33.67;98383.38;5003983;28;113980;-85
2023/06/08 10:26:33;;;;;;;;;;;25.90;50.90;;;26.35;33.44;98372.72;5028491;28;112762;-80
2023/06/08 10:29:06;;;;;;;;;;;25.90;50.90;;;26.42;33.42;98373.41;5028241;27;124424;-80
2023/06/08 10:31:37;;;;;;;;;;;26.00;50.60;;;26.51;33.40;98369.25;5033645;27;124510;-80
2023/06/08 10:34:21;;;;;;;;;;;26.00;50.60;;;26.59;32.93;98371.53;5012832;28;114549;-79
2023/06/08 10:36:48;;;;;;;;;;;26.10;50.10;;;26.64;32.05;98370.25;5027514;28;113711;-80
2023/06/08 10:39:16;;;;;;;;;;;26.20;49.20;;;26.66;32.49;98362.13;5026973;27;124582;-80
2023/06/08 10:41:56;;;;;;;;;;;26.20;49.40;;;26.67;32.21;98361.69;5025422;27;123961;-80
2023/06/08 10:44:33;;;;;;;;;;;26.30;49.40;;;26.70;32.24;98354.34;5044030;27;115380;-80
2023/06/08 10:47:07;;;;;;;;;;;26.30;49.40;;;26.78;32.20;98367.16;5044330;27;114001;-78
2023/06/08 10:49:40;;;;;;;;;;;26.40;49.40;;;26.87;32.35;98373.09;5025336;27;124410;-78
2023/06/08 10:52:09;;;;;;;;;;;26.40;49.20;;;26.99;31.69;98356.66;5035784;27;123959;-77
2023/06/08 10:54:57;;;;;;;;;;;26.50;48.50;;;27.06;31.37;98353.69;5039787;27;114544;-79
2023/06/08 10:57:34;;;;;;;;;;;26.50;47.70;;;27.13;31.32;98353.53;5025206;28;113686;-80
2023/06/08 11:00:01;;;;;;;;;;;26.60;47.80;;;27.22;30.89;98350.97;5041542;27;123964;-79
2023/06/08 11:02:30;;;;;;;;;;;26.70;47.70;;;27.28;30.97;98354.91;5015638;27;124203;-80
2023/06/08 11:04:58;;;;;;;;;;;26.80;47.50;;;27.37;30.63;98353.50;5024285;28;114353;-79
2023/06/08 11:07:26;;;;;;;;;;;26.90;47.40;;;27.42;30.24;98348.13;5024870;27;114472;-79
2023/06/08 11:09:52;;;;;;;;;;;26.90;46.60;;;27.47;30.51;98341.16;5025463;28;124850;-80
2023/06/08 11:12:22;;;;;;;;;;;27.00;46.60;;;27.55;30.48;98348.25;5025538;27;124709;-80
2023/06/08 11:14:48;;;;;;;;;;;27.10;46.80;;;27.63;30.26;98338.34;5025426;28;114593;-80
2023/06/08 11:17:14;;;;;;;;;;;27.10;46.50;;;27.71;29.79;98336.97;5026234;27;113711;-80